地図

経路データ

SID SEASON NUMBER BASIN SUBBASIN NAME ISO_TIME NATURE LAT LON WMO_WIND WMO_PRES WMO_AGENCY TRACK_TYPE DIST2LAND LANDFALL IFLAG USA_AGENCY USA_ATCF_ID USA_LAT USA_LON USA_RECORD USA_STATUS USA_WIND USA_PRES USA_SSHS USA_R34_NE USA_R34_SE USA_R34_SW USA_R34_NW USA_R50_NE USA_R50_SE USA_R50_SW USA_R50_NW USA_R64_NE USA_R64_SE USA_R64_SW USA_R64_NW USA_POCI USA_ROCI USA_RMW USA_EYE TOKYO_LAT TOKYO_LON TOKYO_GRADE TOKYO_WIND TOKYO_PRES TOKYO_R50_DIR TOKYO_R50_LONG TOKYO_R50_SHORT TOKYO_R30_DIR TOKYO_R30_LONG TOKYO_R30_SHORT TOKYO_LAND CMA_LAT CMA_LON CMA_CAT CMA_WIND CMA_PRES HKO_LAT HKO_LON HKO_CAT HKO_WIND HKO_PRES NEWDELHI_LAT NEWDELHI_LON NEWDELHI_GRADE NEWDELHI_WIND NEWDELHI_PRES NEWDELHI_CI NEWDELHI_DP NEWDELHI_POCI REUNION_LAT REUNION_LON REUNION_TYPE REUNION_WIND REUNION_PRES REUNION_TNUM REUNION_CI REUNION_RMW REUNION_R34_NE REUNION_R34_SE REUNION_R34_SW REUNION_R34_NW REUNION_R50_NE REUNION_R50_SE REUNION_R50_SW REUNION_R50_NW REUNION_R64_NE REUNION_R64_SE REUNION_R64_SW REUNION_R64_NW BOM_LAT BOM_LON BOM_TYPE BOM_WIND BOM_PRES BOM_TNUM BOM_CI BOM_RMW BOM_R34_NE BOM_R34_SE BOM_R34_SW BOM_R34_NW BOM_R50_NE BOM_R50_SE BOM_R50_SW BOM_R50_NW BOM_R64_NE BOM_R64_SE BOM_R64_SW BOM_R64_NW BOM_ROCI BOM_POCI BOM_EYE BOM_POS_METHOD BOM_PRES_METHOD NADI_LAT NADI_LON NADI_CAT NADI_WIND NADI_PRES WELLINGTON_LAT WELLINGTON_LON WELLINGTON_WIND WELLINGTON_PRES DS824_LAT DS824_LON DS824_STAGE DS824_WIND DS824_PRES TD9636_LAT TD9636_LON TD9636_STAGE TD9636_WIND TD9636_PRES TD9635_LAT TD9635_LON TD9635_WIND TD9635_PRES TD9635_ROCI NEUMANN_LAT NEUMANN_LON NEUMANN_CLASS NEUMANN_WIND NEUMANN_PRES MLC_LAT MLC_LON MLC_CLASS MLC_WIND MLC_PRES USA_GUST BOM_GUST BOM_GUST_PER REUNION_GUST REUNION_GUST_PER USA_SEAHGT USA_SEARAD_NE USA_SEARAD_SE USA_SEARAD_SW USA_SEARAD_NW STORM_SPEED STORM_DIR
1870242N13338 1870 16 NA NA NOT_NAMED 1870-08-29 12:00:00 TS 13.0000 -21.7000 main 491 491 _____________O -1 13.0000 -21.7000 TS 35 12 279
1870242N13338 1870 16 NA NA NOT_NAMED 1870-08-29 15:00:00 TS 13.0903 -22.3000 main 548 548 _____________P -1 13.0903 -22.3000 TS 37 12 280
1870242N13338 1870 16 NA NA NOT_NAMED 1870-08-29 18:00:00 TS 13.2000 -22.9000 main 606 606 _____________O -1 13.2000 -22.9000 TS 40 12 282
1870242N13338 1870 16 NA NA NOT_NAMED 1870-08-29 21:00:00 TS 13.3424 -23.5000 main 666 663 _____________P -1 13.3424 -23.5000 TS 45 12 284
1870242N13338 1870 16 NA NA NOT_NAMED 1870-08-30 00:00:00 TS 13.5000 -24.1000 main 724 724 _____________O -1 13.5000 -24.1000 TS 50 12 285
1870242N13338 1870 16 NA NA NOT_NAMED 1870-08-30 03:00:00 TS 13.6574 -24.7000 main 784 784 _____________P -1 13.6574 -24.7000 TS 55 12 284
1870242N13338 1870 16 NA NA NOT_NAMED 1870-08-30 06:00:00 TS 13.8000 -25.3000 main 847 847 _____________O -1 13.8000 -25.3000 TS 60 12 282
1870242N13338 1870 16 NA NA NOT_NAMED 1870-08-30 09:00:00 TS 13.8999 -25.9002 main 909 909 _____________P -1 13.8999 -25.9002 TS 60 12 280
1870242N13338 1870 16 NA NA NOT_NAMED 1870-08-30 12:00:00 TS 14.0000 -26.5000 main 973 973 _____________O -1 14.0000 -26.5000 TS 60 12 282
1870242N13338 1870 16 NA NA NOT_NAMED 1870-08-30 15:00:00 TS 14.1499 -27.1000 main 1036 1035 _____________P -1 14.1499 -27.1000 TS 62 12 284
1870242N13338 1870 16 NA NA NOT_NAMED 1870-08-30 18:00:00 TS 14.3000 -27.7000 main 1099 1099 _____________O -1 14.3000 -27.7000 HU 65 12 282
1870242N13338 1870 16 NA NA NOT_NAMED 1870-08-30 21:00:00 TS 14.3998 -28.3002 main 1163 1163 _____________P -1 14.3998 -28.3002 HU 65 12 280
1870242N13338 1870 16 NA NA NOT_NAMED 1870-08-31 00:00:00 TS 14.5000 -28.9000 main 1227 1227 _____________O -1 14.5000 -28.9000 HU 65 12 282
1870242N13338 1870 16 NA NA NOT_NAMED 1870-08-31 03:00:00 TS 14.6498 -29.5000 main 1291 1291 _____________P -1 14.6498 -29.5000 HU 65 12 284
1870242N13338 1870 16 NA NA NOT_NAMED 1870-08-31 06:00:00 TS 14.8000 -30.1000 main 1355 1355 _____________O -1 14.8000 -30.1000 HU 65 12 282
1870242N13338 1870 16 NA NA NOT_NAMED 1870-08-31 09:00:00 TS 14.8998 -30.7002 main 1419 1419 _____________P -1 14.8998 -30.7002 HU 65 12 280
1870242N13338 1870 16 NA NA NOT_NAMED 1870-08-31 12:00:00 TS 15.0000 -31.3000 main 1484 1484 _____________O -1 15.0000 -31.3000 HU 65 12 282
1870242N13338 1870 16 NA NA NOT_NAMED 1870-08-31 15:00:00 TS 15.1423 -31.9000 main 1548 1548 _____________P -1 15.1423 -31.9000 HU 65 12 285
1870242N13338 1870 16 NA NA NOT_NAMED 1870-08-31 18:00:00 TS 15.3000 -32.5000 main 1612 1612 _____________O -1 15.3000 -32.5000 HU 65 12 285
1870242N13338 1870 16 NA NA NOT_NAMED 1870-08-31 21:00:00 TS 15.4574 -33.1075 main 1677 1677 _____________P -1 15.4574 -33.1075 HU 65 12 285
1870242N13338 1870 16 NA NA NOT_NAMED 1870-09-01 00:00:00 TS 15.6000 -33.7000 50 atcf main 1741 1741 _____________O -1 15.6000 -33.7000 HU 65 11 283
1870242N13338 1870 16 NA NA NOT_NAMED 1870-09-01 03:00:00 TS 15.7073 -34.2576 main 1806 1806 _____________P -1 15.7073 -34.2576 HU 65 11 281
1870242N13338 1870 16 NA NA NOT_NAMED 1870-09-01 06:00:00 TS 15.8000 -34.8000 50 atcf main 1860 1860 _____________O -1 15.8000 -34.8000 HU 65 11 280
1870242N13338 1870 16 NA NA NOT_NAMED 1870-09-01 09:00:00 TS 15.8999 -35.3501 main 1924 1924 _____________P -1 15.8999 -35.3501 HU 65 11 281
1870242N13338 1870 16 NA NA NOT_NAMED 1870-09-01 12:00:00 TS 16.0000 -35.9000 60 atcf main 1978 1978 _____________O -1 16.0000 -35.9000 HU 65 11 280
1870242N13338 1870 16 NA NA NOT_NAMED 1870-09-01 15:00:00 TS 16.0924 -36.4501 main 2042 2042 _____________P -1 16.0924 -36.4501 HU 65 11 281
1870242N13338 1870 16 NA NA NOT_NAMED 1870-09-01 18:00:00 TS 16.2000 -37.0000 60 atcf main 2053 2019 _____________O -1 16.2000 -37.0000 HU 65 11 283
1870242N13338 1870 16 NA NA NOT_NAMED 1870-09-01 21:00:00 TS 16.3424 -37.5500 main 2011 1986 _____________P -1 16.3424 -37.5500 HU 65 11 286
1870242N13338 1870 16 NA NA NOT_NAMED 1870-09-02 00:00:00 TS 16.5000 -38.1000 60 atcf main 1986 1954 _____________O -1 16.5000 -38.1000 HU 65 11 286
1870242N13338 1870 16 NA NA NOT_NAMED 1870-09-02 03:00:00 TS 16.6499 -38.6501 main 1946 1946 _____________P -1 16.6499 -38.6501 HU 65 4 355
1870242N13338 1870 16 NA NA NOT_NAMED 1870-09-02 06:00:00 TS 16.9000 -38.1333 60 atcf main 2016 2008 O____________O hurdat_atl AL031870 17.1000 -36.0000 TS 60 0 16.8000 -39.2000 HU 65 5 32
1870242N13338 1870 16 NA NA NOT_NAMED 1870-09-02 09:00:00 TS 17.0573 -38.3828 main 2008 1970 P____________P AL031870 17.1287 -37.0227 TS 60 0 16.9574 -39.7500 HU 65 8 289
1870242N13338 1870 16 NA NA NOT_NAMED 1870-09-02 12:00:00 TS 17.1600 -38.9200 60 atcf main 1978 1942 O____________O hurdat_atl AL031870 17.2000 -38.0000 TS 60 0 17.1000 -40.3000 HU 65 11 282
1870242N13338 1870 16 NA NA NOT_NAMED 1870-09-02 15:00:00 TS 17.2920 -39.5525 main 1935 1894 P____________P AL031870 17.3418 -38.9073 TS 60 0 17.1923 -40.8428 HU 65 14 281
1870242N13338 1870 16 NA NA NOT_NAMED 1870-09-02 18:00:00 TS 17.4333 -40.3333 60 atcf main 1894 1849 O____________O hurdat_atl AL031870 17.5000 -39.8000 TS 60 0 17.3000 -41.4000 HU 65 16 280
1870242N13338 1870 16 NA NA NOT_NAMED 1870-09-02 21:00:00 TS 17.5613 -41.1569 main 1851 1810 P____________P AL031870 17.5995 -40.7354 TS 55 0 17.4850 -41.9999 HU 65 16 280
1870242N13338 1870 16 NA NA NOT_NAMED 1870-09-03 00:00:00 TS 17.7000 -42.0000 50 atcf main 1810 1768 O____________O hurdat_atl AL031870 17.7000 -41.7000 TS 50 0 17.7000 -42.6000 HU 65 16 281
1870242N13338 1870 16 NA NA NOT_NAMED 1870-09-03 03:00:00 TS 17.8663 -42.8450 main 1777 1729 P____________P AL031870 17.8496 -42.6924 TS 50 0 17.8997 -43.1502 HU 65 17 282
1870242N13338 1870 16 NA NA NOT_NAMED 1870-09-03 06:00:00 TS 18.0333 -43.7000 50 atcf main 1729 1697 O____________O hurdat_atl AL031870 18.0000 -43.7000 TS 50 0 18.1000 -43.7000 HU 65 17 281
1870242N13338 1870 16 NA NA NOT_NAMED 1870-09-03 09:00:00 TS 18.1741 -44.5868 main 1695 1662 P____________P AL031870 18.1074 -44.7302 TS 50 0 18.3074 -44.3000 HU 65 17 279
1870242N13338 1870 16 NA NA NOT_NAMED 1870-09-03 12:00:00 TS 18.3000 -45.4333 50 atcf main 1662 1637 O____________O hurdat_atl AL031870 18.2000 -45.7000 TS 50 0 18.5000 -44.9000 HU 65 15 279
1870242N13338 1870 16 NA NA NOT_NAMED 1870-09-03 15:00:00 TS 18.4035 -46.1653 main 1632 1615 P____________P AL031870 18.2917 -46.5227 TS 50 0 18.6272 -45.4505 HU 65 14 280
1870242N13338 1870 16 NA NA NOT_NAMED 1870-09-03 18:00:00 TS 18.5333 -46.8667 50 atcf main 1611 1602 O____________O hurdat_atl AL031870 18.4000 -47.3000 TS 50 0 18.8000 -46.0000 HU 65 14 284
1870242N13338 1870 16 NA NA NOT_NAMED 1870-09-03 21:00:00 TS 18.7372 -47.6183 main 1602 1589 P____________P AL031870 18.5420 -48.1276 TS 45 0 19.1275 -46.5998 HU 65 15 287
1870242N13338 1870 16 NA NA NOT_NAMED 1870-09-04 00:00:00 TS 18.9667 -48.4000 40 atcf main 1595 1577 O____________O hurdat_atl AL031870 18.7000 -49.0000 TS 40 0 19.5000 -47.2000 HU 65 16 286
1870242N13338 1870 16 NA NA NOT_NAMED 1870-09-04 03:00:00 TS 19.1738 -49.1993 main 1584 1530 P____________P AL031870 18.8570 -49.9201 TS 40 0 19.8073 -47.7578 HU 65 16 285
1870242N13338 1870 16 NA NA NOT_NAMED 1870-09-04 06:00:00 TS 19.3667 -50.0333 40 atcf main 1530 1464 O____________O hurdat_atl AL031870 19.0000 -50.9000 TS 40 0 20.1000 -48.3000 HU 65 17 282
1870242N13338 1870 16 NA NA NOT_NAMED 1870-09-04 09:00:00 TS 19.5231 -50.9122 main 1464 1432 P____________P AL031870 19.0848 -51.9431 TS 40 0 20.3998 -48.8502 HU 65 15 287
1870242N13338 1870 16 NA NA NOT_NAMED 1870-09-04 12:00:00 TS 19.8000 -51.5600 40 1004 atcf main 1432 1425 O____________O hurdat_atl AL031870 19.2000 -53.0000 TS 40 1004 0 20.7000 -49.4000 HU 65 12 304
1870242N13338 1870 16 NA NA NOT_NAMED 1870-09-04 15:00:00 TS 20.2053 -51.9821 main 1434 1431 P____________P AL031870 19.4248 -54.0199 TS 40 0 20.9923 -49.9503 HU 65 11 337
1870242N13338 1870 16 NA NA NOT_NAMED 1870-09-04 18:00:00 TS 20.7667 -52.0000 40 atcf main 1449 1449 O____________O hurdat_atl AL031870 19.7000 -55.0000 TS 40 0 21.3000 -50.5000 HU 65 17 31
1870242N13338 1870 16 NA NA NOT_NAMED 1870-09-04 21:00:00 TS 21.6423 -51.0502 main 1555 1514 _____________P AL031870 TS -1 21.6423 -51.0502 HU 65 13 17
1870242N13338 1870 16 NA NA NOT_NAMED 1870-09-05 00:00:00 TS 22.0000 -51.6000 main 1514 1472 _____________O AL031870 TS -1 22.0000 -51.6000 HU 65 13 306
1870242N13338 1870 16 NA NA NOT_NAMED 1870-09-05 03:00:00 TS 22.3723 -52.1500 main 1475 1425 _____________P AL031870 TS -1 22.3723 -52.1500 HU 65 12 305
1870242N13338 1870 16 NA NA NOT_NAMED 1870-09-05 06:00:00 TS 22.7000 -52.7000 main 1425 1383 _____________O AL031870 TS -1 22.7000 -52.7000 HU 65 12 298
1870242N13338 1870 16 NA NA NOT_NAMED 1870-09-05 09:00:00 TS 22.9226 -53.2803 main 1374 1333 _____________P AL031870 TS -1 22.9226 -53.2803 HU 67 11 292
1870242N13338 1870 16 NA NA NOT_NAMED 1870-09-05 12:00:00 TS 23.1000 -53.8000 main 1333 1309 _____________O AL031870 TS -1 23.1000 -53.8000 HU 70 9 295
1870242N13338 1870 16 NA NA NOT_NAMED 1870-09-05 15:00:00 TS 23.2919 -54.1505 main 1304 1285 _____________P AL031870 TS -1 23.2919 -54.1505 HU 70 8 302
1870242N13338 1870 16 NA NA NOT_NAMED 1870-09-05 18:00:00 TS 23.5000 -54.5000 main 1285 1248 _____________O AL031870 TS -1 23.5000 -54.5000 HU 70 9 300
1870242N13338 1870 16 NA NA NOT_NAMED 1870-09-05 21:00:00 TS 23.7652 -55.0346 main 1253 1210 _____________P AL031870 TS -1 23.7652 -55.0346 HU 70 11 296
1870242N13338 1870 16 NA NA NOT_NAMED 1870-09-06 00:00:00 TS 24.0000 -55.6000 main 1210 1180 _____________O AL031870 TS -1 24.0000 -55.6000 HU 70 10 291
1870242N13338 1870 16 NA NA NOT_NAMED 1870-09-06 03:00:00 TS 24.1222 -56.0654 main 1172 1143 _____________P AL031870 TS -1 24.1222 -56.0654 HU 70 8 284
1870242N13338 1870 16 NA NA NOT_NAMED 1870-09-06 06:00:00 TS 24.2000 -56.5000 main 1143 1115 _____________O AL031870 TS -1 24.2000 -56.5000 HU 70 992 8 284
1870242N13338 1870 16 NA NA NOT_NAMED 1870-09-06 09:00:00 TS 24.3299 -56.9498 main 1115 1081 _____________P AL031870 TS -1 24.3299 -56.9498 HU 70 8 284
1870242N13338 1870 16 NA NA NOT_NAMED 1870-09-06 12:00:00 TS 24.4000 -57.4000 main 1081 1042 _____________O AL031870 TS -1 24.4000 -57.4000 HU 70 8 268
1870242N13338 1870 16 NA NA NOT_NAMED 1870-09-06 15:00:00 TS 24.3074 -57.8505 main 1034 995 _____________P AL031870 TS -1 24.3074 -57.8505 HU 70 8 256
1870242N13338 1870 16 NA NA NOT_NAMED 1870-09-06 18:00:00 TS 24.2000 -58.3000 main 995 964 _____________O AL031870 TS -1 24.2000 -58.3000 HU 70 8 264
1870242N13338 1870 16 NA NA NOT_NAMED 1870-09-06 21:00:00 TS 24.2273 -58.7423 main 964 934 _____________P AL031870 TS -1 24.2273 -58.7423 HU 70 8 277
1870242N13338 1870 16 NA NA NOT_NAMED 1870-09-07 00:00:00 TS 24.3000 -59.2000 main 934 898 _____________O AL031870 TS -1 24.3000 -59.2000 HU 70 9 276
1870242N13338 1870 16 NA NA NOT_NAMED 1870-09-07 03:00:00 TS 24.3275 -59.7077 main 898 872 _____________P AL031870 TS -1 24.3275 -59.7077 HU 70 9 276
1870242N13338 1870 16 NA NA NOT_NAMED 1870-09-07 06:00:00 TS 24.4000 -60.2000 main 872 855 _____________O AL031870 TS -1 24.4000 -60.2000 HU 70 9 287
1870242N13338 1870 16 NA NA NOT_NAMED 1870-09-07 09:00:00 TS 24.5848 -60.6223 main 864 855 _____________P AL031870 TS -1 24.5848 -60.6223 HU 70 8 299
1870242N13338 1870 16 NA NA NOT_NAMED 1870-09-07 12:00:00 TS 24.8000 -61.0000 main 858 846 _____________O AL031870 TS -1 24.8000 -61.0000 HU 70 8 298
1870242N13338 1870 16 NA NA NOT_NAMED 1870-09-07 15:00:00 TS 24.9500 -61.3727 main 846 845 _____________P AL031870 TS -1 24.9500 -61.3727 HU 70 7 295
1870242N13338 1870 16 NA NA NOT_NAMED 1870-09-07 18:00:00 TS 25.1000 -61.7000 main 850 845 _____________O AL031870 TS -1 25.1000 -61.7000 HU 70 6 303
1870242N13338 1870 16 NA NA NOT_NAMED 1870-09-07 21:00:00 TS 25.2998 -61.9576 main 856 856 _____________P AL031870 TS -1 25.2998 -61.9576 HU 70 6 311
1870242N13338 1870 16 NA NA NOT_NAMED 1870-09-08 00:00:00 TS 25.5000 -62.2000 main 867 863 _____________O AL031870 TS -1 25.5000 -62.2000 HU 70 6 307
1870242N13338 1870 16 NA NA NOT_NAMED 1870-09-08 03:00:00 TS 25.6499 -62.4777 main 865 865 _____________P AL031870 TS -1 25.6499 -62.4777 HU 70 6 299
1870242N13338 1870 16 NA NA NOT_NAMED 1870-09-08 06:00:00 TS 25.8000 -62.8000 main 876 872 _____________O AL031870 TS -1 25.8000 -62.8000 HU 70 7 299
1870242N13338 1870 16 NA NA NOT_NAMED 1870-09-08 09:00:00 TS 25.9923 -63.1626 main 884 881 _____________P AL031870 TS -1 25.9923 -63.1626 HU 70 8 299
1870242N13338 1870 16 NA NA NOT_NAMED 1870-09-08 12:00:00 TS 26.2000 -63.6000 main 895 893 _____________O AL031870 TS -1 26.2000 -63.6000 HU 70 10 294
1870242N13338 1870 16 NA NA NOT_NAMED 1870-09-08 15:00:00 TS 26.4004 -64.1649 main 905 904 _____________P AL031870 TS -1 26.4004 -64.1649 HU 70 11 292
1870242N13338 1870 16 NA NA NOT_NAMED 1870-09-08 18:00:00 TS 26.6000 -64.7000 main 921 920 _____________O AL031870 TS -1 26.6000 -64.7000 HU 70 9 297
1870242N13338 1870 16 NA NA NOT_NAMED 1870-09-08 21:00:00 TS 26.8072 -65.0527 main 940 863 _____________P AL031870 TS -1 26.8072 -65.0527 HU 72 6 196
1870242N13338 1870 16 NA NA NOT_NAMED 1870-09-09 00:00:00 TS 26.0667 -64.8667 70 atcf main 863 842 O____________O hurdat_atl AL041870 24.2000 -64.0000 HU 70 1 27.0000 -65.3000 HU 75 9 169
1870242N13338 1870 16 NA NA NOT_NAMED 1870-09-09 03:00:00 TS 25.9025 -64.8512 main 841 841 P____________P AL041870 24.6448 -64.1828 HU 70 1 27.1499 -65.5227 HU 75 1 207
1870242N13338 1870 16 NA NA NOT_NAMED 1870-09-09 06:00:00 TS 25.9800 -64.9200 70 atcf main 852 851 O____________O hurdat_atl AL041870 25.1000 -64.4000 HU 70 1 27.3000 -65.7000 HU 75 4 324
1870242N13338 1870 16 NA NA NOT_NAMED 1870-09-09 09:00:00 TS 26.1900 -65.0785 main 873 873 P____________P AL041870 25.5350 -64.6852 HU 75 1 27.5000 -65.8650 HU 75 7 328
1870242N13338 1870 16 NA NA NOT_NAMED 1870-09-09 12:00:00 TS 26.5667 -65.3333 80 atcf main 912 908 O____________O hurdat_atl AL041870 26.0000 -65.0000 HU 80 1 27.7000 -66.0000 HU 75 9 330
1870242N13338 1870 16 NA NA NOT_NAMED 1870-09-09 15:00:00 TS 26.9483 -65.5621 main 929 929 P____________P AL041870 26.4974 -65.2931 HU 80 1 27.8500 -66.1001 HU 75 9 333
1870242N13338 1870 16 NA NA NOT_NAMED 1870-09-09 18:00:00 TS 27.4000 -65.8000 80 atcf main 970 970 O____________O hurdat_atl AL041870 27.1000 -65.6000 HU 80 1 28.0000 -66.2000 HU 75 11 334
1870242N13338 1870 16 NA NA NOT_NAMED 1870-09-09 21:00:00 TS 27.9476 -66.1153 main 1008 1008 P____________P AL041870 27.8477 -65.9719 HU 85 2 28.1475 -66.4020 HU 77 13 337
1870242N13338 1870 16 NA NA NOT_NAMED 1870-09-10 00:00:00 TS 28.6000 -66.3667 90 atcf main 1060 1060 O____________O hurdat_atl AL041870 28.7000 -66.3000 HU 90 2 28.4000 -66.5000 HU 80 14 347
1870242N13338 1870 16 NA NA NOT_NAMED 1870-09-10 03:00:00 TS 29.3263 -66.4827 main 1110 1058 P____________P AL041870 29.5699 -66.5246 HU 90 2 28.8392 -66.3988 HU 80 15 358
1870242N13338 1870 16 NA NA NOT_NAMED 1870-09-10 06:00:00 TS 30.1333 -66.4000 90 atcf main 1058 1019 O____________O hurdat_atl AL041870 30.5000 -66.6000 HU 90 2 29.4000 -66.0000 HU 80 17 11
1870242N13338 1870 16 NA NA NOT_NAMED 1870-09-10 09:00:00 TS 31.0152 -66.0996 main 1021 1007 P____________P AL041870 31.5297 -66.5401 HU 95 2 29.9862 -65.2186 HU 80 19 21
1870242N13338 1870 16 NA NA NOT_NAMED 1870-09-10 12:00:00 TS 31.8667 -65.6333 100 atcf main 1009 1004 O____________O hurdat_atl AL041870 32.5000 -66.3000 HU 100 3 30.6000 -64.3000 HU 80 18 28
1870242N13338 1870 16 NA NA NOT_NAMED 1870-09-10 15:00:00 TS 32.5580 -65.1341 main 1018 1018 P____________P AL041870 33.2373 -65.9241 HU 100 3 31.1995 -63.5542 HU 80 16 34
1870242N13338 1870 16 NA NA NOT_NAMED 1870-09-10 18:00:00 TS 33.2000 -64.5667 100 atcf main 1037 1014 O____________O hurdat_atl AL041870 33.9000 -65.4000 HU 100 3 31.8000 -62.9000 HU 80 17 36
1870242N13338 1870 16 NA NA NOT_NAMED 1870-09-10 21:00:00 TS 33.8996 -63.9791 main 1014 977 P____________P AL041870 34.6498 -64.7945 HU 105 3 32.3991 -62.3484 HU 82 17 36
1870242N13338 1870 16 NA NA NOT_NAMED 1870-09-11 00:00:00 TS 34.6000 -63.3333 110 atcf main 982 950 O____________O hurdat_atl AL041870 35.4000 -64.1000 HU 110 3 33.0000 -61.8000 HU 85 18 39
1870242N13338 1870 16 NA NA NOT_NAMED 1870-09-11 03:00:00 TS 35.2842 -62.6072 main 941 891 P____________P AL041870 36.1224 -63.3570 HU 110 3 33.6077 -61.1075 HU 85 18 42
1870242N13338 1870 16 NA NA NOT_NAMED 1870-09-11 06:00:00 TS 35.9333 -61.8667 110 atcf main 894 870 O____________O hurdat_atl AL041870 36.8000 -62.6000 HU 110 3 34.2000 -60.4000 HU 85 16 50
1870242N13338 1870 16 NA NA NOT_NAMED 1870-09-11 09:00:00 TS 36.3254 -61.0764 main 877 867 P____________P AL041870 37.4141 -61.9008 HU 110 3 34.7490 -59.8129 HU 85 15 62
1870242N13338 1870 16 NA NA NOT_NAMED 1870-09-11 12:00:00 TS 36.6500 -60.2000 110 atcf main 871 871 O____________O hurdat_atl AL041870 38.0000 -61.2000 HU 110 3 35.3000 -59.2000 HU 85 17 71
1870242N13338 1870 16 NA NA NOT_NAMED 1870-09-11 15:00:00 TS 36.8684 -59.0582 main 902 902 P____________P AL041870 38.6486 -60.4230 HU -1 35.9003 -58.4152 HU 85 21 94
1870242N13338 1870 16 NA NA NOT_NAMED 1870-09-11 18:00:00 TS 36.5000 -57.6000 110 atcf main 1010 974 P____________O AL041870 39.3335 -59.5824 HU -1 36.5000 -57.6000 HU 85 17 84
1870242N13338 1870 16 NA NA NOT_NAMED 1870-09-11 21:00:00 TS 37.0484 -56.9272 main 977 938 P____________P AL041870 40.0471 -58.6784 HU -1 37.0484 -56.9272 HU 85 16 45
1870242N13338 1870 16 NA NA NOT_NAMED 1870-09-12 00:00:00 TS 37.6000 -56.2000 100 948 atcf main 938 914 P____________O AL041870 40.7815 -57.7112 HU -1 37.6000 -56.2000 HU 85 18 50
1870242N13338 1870 16 NA NA NOT_NAMED 1870-09-12 03:00:00 TS 38.1854 -55.2370 main 918 869 P____________P AL041870 41.5290 -56.6815 HU -1 38.1854 -55.2370 HU 85 20 53
1870242N13338 1870 16 NA NA NOT_NAMED 1870-09-12 06:00:00 TS 38.8000 -54.2000 100 atcf main 868 800 P____________O AL041870 42.2817 -55.5903 HU -1 38.8000 -54.2000 HU 85 971 20 51
1870242N13338 1870 16 NA NA NOT_NAMED 1870-09-12 09:00:00 TS 39.4333 -53.2696 main 800 725 P____________P AL041870 43.0316 -54.4392 HU -1 39.4333 -53.2696 HU 85 20 48
1870242N13338 1870 16 NA NA NOT_NAMED 1870-09-12 12:00:00 TS 40.1000 -52.3000 90 atcf main 726 664 P____________O AL041870 43.7708 -53.2303 HU -1 40.1000 -52.3000 HU 85 21 50
1870242N13338 1870 16 NA NA NOT_NAMED 1870-09-12 15:00:00 TS 40.7999 -51.1719 main 664 618 P____________P AL041870 44.4915 -51.9663 HU -1 40.7999 -51.1719 HU 82 22 51
1870242N13338 1870 16 NA NA NOT_NAMED 1870-09-12 18:00:00 TS 41.5000 -50.0000 90 atcf main 621 600 P____________O AL041870 45.1859 -50.6509 HU -1 41.5000 -50.0000 HU 80 22 52
1870242N13338 1870 16 NA NA NOT_NAMED 1870-09-12 21:00:00 TS 42.1562 -48.8897 main 595 593 P____________P AL041870 45.8466 -49.2885 HU -1 42.1562 -48.8897 HU 77 21 51
1870242N13338 1870 16 NA NA NOT_NAMED 1870-09-13 00:00:00 TS 42.8000 -47.8000 80 atcf main 598 596 P____________O AL041870 46.4661 -47.8848 HU -1 42.8000 -47.8000 HU 75 21 51
1870242N13338 1870 16 NA NA NOT_NAMED 1870-09-13 03:00:00 TS 43.4415 -46.6972 main 620 619 P____________P AL041870 47.0376 -46.4460 HU -1 43.4415 -46.6972 HU 72 21 51
1870242N13338 1870 16 NA NA NOT_NAMED 1870-09-13 06:00:00 TS 44.1000 -45.6000 80 atcf main 648 644 P____________O AL041870 47.5545 -44.9798 HU -1 44.1000 -45.6000 HU 70 31 36
1870242N13338 1870 16 NA NA NOT_NAMED 1870-09-13 09:00:00 MX 45.9084 -44.1597 main 661 661 P____________P AL041870 48.0106 -43.4946 HU -1 44.8064 -44.4986 HU 67 37 34
1870242N13338 1870 16 NA NA NOT_NAMED 1870-09-13 12:00:00 MX 47.1571 -42.6000 70 atcf main 750 750 O____________O hurdat_atl AL041870 48.4000 -42.0000 EX 70 -4 45.5000 -43.4000 HU 65 28 47
1870242N13338 1870 16 NA NA NOT_NAMED 1870-09-13 15:00:00 MX 47.8410 -41.1076 main 857 857 P____________P AL041870 48.7228 -40.5033 EX 70 -4 46.1246 -42.3038 HU 62 22 61
1870242N13338 1870 16 NA NA NOT_NAMED 1870-09-13 18:00:00 ET 48.2333 -39.7333 70 atcf main 960 O____________O hurdat_atl AL041870 49.0000 -39.0000 EX 70 -4 46.7000 -41.2000 EX 60 962 20 67

IBTrACS Databaseについて

本データベースは、米国NOAAが公開する1842年以降の世界の熱帯低気圧のベストトラックデータアーカイブInternational Best Track Archive for Climate Stewardship (IBTrACS)を、ウェブで閲覧しやすい形式に変換したものです。

最終更新日:2021-10-21